sensor_id;sensor_type;location;lat;lon;timestamp;P1;durP1;ratioP1;P2;durP2;ratioP2
74320;SDS011;62738;45.772;4.804;2023-01-28T00:01:28;13.93;;;7.07;;
74320;SDS011;62738;45.772;4.804;2023-01-28T00:03:55;11.50;;;5.38;;
74320;SDS011;62738;45.772;4.804;2023-01-28T00:06:21;16.85;;;7.78;;
74320;SDS011;62738;45.772;4.804;2023-01-28T00:08:48;13.25;;;6.78;;
74320;SDS011;62738;45.772;4.804;2023-01-28T00:11:15;14.65;;;7.80;;
74320;SDS011;62738;45.772;4.804;2023-01-28T00:13:41;12.27;;;5.97;;
74320;SDS011;62738;45.772;4.804;2023-01-28T00:16:08;12.90;;;6.10;;
74320;SDS011;62738;45.772;4.804;2023-01-28T00:18:35;14.23;;;7.15;;
74320;SDS011;62738;45.772;4.804;2023-01-28T00:23:31;16.05;;;7.20;;
74320;SDS011;62738;45.772;4.804;2023-01-28T00:26:03;13.52;;;7.00;;
74320;SDS011;62738;45.772;4.804;2023-01-28T00:28:31;15.70;;;7.80;;
74320;SDS011;62738;45.772;4.804;2023-01-28T00:31:04;16.88;;;7.85;;
74320;SDS011;62738;45.772;4.804;2023-01-28T00:33:32;13.45;;;7.20;;
74320;SDS011;62738;45.772;4.804;2023-01-28T00:35:59;14.57;;;5.88;;
74320;SDS011;62738;45.772;4.804;2023-01-28T00:38:27;15.95;;;7.78;;
74320;SDS011;62738;45.772;4.804;2023-01-28T00:40:54;14.45;;;8.23;;
74320;SDS011;62738;45.772;4.804;2023-01-28T00:43:21;13.07;;;5.70;;
74320;SDS011;62738;45.772;4.804;2023-01-28T00:45:47;13.82;;;6.22;;
74320;SDS011;62738;45.772;4.804;2023-01-28T00:48:15;13.18;;;7.03;;
74320;SDS011;62738;45.772;4.804;2023-01-28T00:50:43;12.57;;;6.97;;
74320;SDS011;62738;45.772;4.804;2023-01-28T00:53:10;13.27;;;7.38;;
74320;SDS011;62738;45.772;4.804;2023-01-28T00:55:37;13.65;;;7.32;;
74320;SDS011;62738;45.772;4.804;2023-01-28T00:58:04;13.00;;;6.63;;
74320;SDS011;62738;45.772;4.804;2023-01-28T01:00:31;11.10;;;6.03;;
74320;SDS011;62738;45.772;4.804;2023-01-28T01:02:58;10.93;;;6.20;;
74320;SDS011;62738;45.772;4.804;2023-01-28T01:05:24;11.90;;;6.68;;
74320;SDS011;62738;45.772;4.804;2023-01-28T01:07:51;13.23;;;6.85;;
74320;SDS011;62738;45.772;4.804;2023-01-28T01:10:18;12.82;;;6.63;;
74320;SDS011;62738;45.772;4.804;2023-01-28T01:12:45;11.65;;;5.75;;
74320;SDS011;62738;45.772;4.804;2023-01-28T01:15:12;13.15;;;6.47;;
74320;SDS011;62738;45.772;4.804;2023-01-28T01:17:41;11.70;;;6.75;;
74320;SDS011;62738;45.772;4.804;2023-01-28T01:20:19;14.40;;;6.72;;
74320;SDS011;62738;45.772;4.804;2023-01-28T01:22:47;12.48;;;6.13;;
74320;SDS011;62738;45.772;4.804;2023-01-28T01:25:14;14.50;;;6.65;;
74320;SDS011;62738;45.772;4.804;2023-01-28T01:27:43;13.45;;;7.55;;
74320;SDS011;62738;45.772;4.804;2023-01-28T01:30:11;13.88;;;6.47;;
74320;SDS011;62738;45.772;4.804;2023-01-28T01:32:38;12.10;;;5.47;;
74320;SDS011;62738;45.772;4.804;2023-01-28T01:35:05;13.10;;;7.00;;
74320;SDS011;62738;45.772;4.804;2023-01-28T01:37:34;12.20;;;5.72;;
74320;SDS011;62738;45.772;4.804;2023-01-28T01:40:02;12.40;;;6.90;;
74320;SDS011;62738;45.772;4.804;2023-01-28T01:42:33;13.48;;;6.47;;
74320;SDS011;62738;45.772;4.804;2023-01-28T01:50:02;12.57;;;7.13;;
74320;SDS011;62738;45.772;4.804;2023-01-28T01:52:33;11.65;;;5.80;;
74320;SDS011;62738;45.772;4.804;2023-01-28T01:55:02;13.10;;;6.53;;
74320;SDS011;62738;45.772;4.804;2023-01-28T01:57:33;10.65;;;5.78;;
74320;SDS011;62738;45.772;4.804;2023-01-28T02:00:03;12.95;;;6.25;;
74320;SDS011;62738;45.772;4.804;2023-01-28T02:02:33;11.13;;;6.28;;
74320;SDS011;62738;45.772;4.804;2023-01-28T02:05:03;14.65;;;6.80;;
74320;SDS011;62738;45.772;4.804;2023-01-28T02:07:30;12.40;;;7.72;;
74320;SDS011;62738;45.772;4.804;2023-01-28T02:09:57;11.93;;;7.03;;
74320;SDS011;62738;45.772;4.804;2023-01-28T02:12:26;11.20;;;6.28;;
74320;SDS011;62738;45.772;4.804;2023-01-28T02:15:01;11.75;;;6.18;;
74320;SDS011;62738;45.772;4.804;2023-01-28T02:17:30;12.63;;;6.53;;
74320;SDS011;62738;45.772;4.804;2023-01-28T02:20:07;13.27;;;6.53;;
74320;SDS011;62738;45.772;4.804;2023-01-28T02:22:44;13.15;;;6.35;;
74320;SDS011;62738;45.772;4.804;2023-01-28T02:28:08;10.90;;;6.20;;
74320;SDS011;62738;45.772;4.804;2023-01-28T02:30:39;12.82;;;6.30;;
74320;SDS011;62738;45.772;4.804;2023-01-28T02:33:10;12.63;;;6.18;;
74320;SDS011;62738;45.772;4.804;2023-01-28T02:35:47;12.02;;;6.05;;
74320;SDS011;62738;45.772;4.804;2023-01-28T02:38:19;11.73;;;6.57;;
74320;SDS011;62738;45.772;4.804;2023-01-28T02:40:53;12.20;;;6.10;;
74320;SDS011;62738;45.772;4.804;2023-01-28T02:43:32;12.48;;;6.10;;
74320;SDS011;62738;45.772;4.804;2023-01-28T02:46:16;11.02;;;6.40;;
74320;SDS011;62738;45.772;4.804;2023-01-28T02:49:06;13.18;;;6.57;;
74320;SDS011;62738;45.772;4.804;2023-01-28T02:57:37;11.55;;;5.88;;
74320;SDS011;62738;45.772;4.804;2023-01-28T03:00:13;11.30;;;5.60;;
74320;SDS011;62738;45.772;4.804;2023-01-28T03:02:58;11.07;;;6.32;;
74320;SDS011;62738;45.772;4.804;2023-01-28T03:05:38;16.45;;;6.65;;
74320;SDS011;62738;45.772;4.804;2023-01-28T03:08:38;11.18;;;5.30;;
74320;SDS011;62738;45.772;4.804;2023-01-28T03:11:39;11.88;;;6.45;;
74320;SDS011;62738;45.772;4.804;2023-01-28T03:14:27;12.10;;;6.35;;
74320;SDS011;62738;45.772;4.804;2023-01-28T03:17:16;10.95;;;5.88;;
74320;SDS011;62738;45.772;4.804;2023-01-28T03:20:05;10.43;;;5.97;;
74320;SDS011;62738;45.772;4.804;2023-01-28T03:22:52;12.57;;;6.13;;
74320;SDS011;62738;45.772;4.804;2023-01-28T03:25:40;12.73;;;6.13;;
74320;SDS011;62738;45.772;4.804;2023-01-28T03:28:28;9.90;;;5.15;;
74320;SDS011;62738;45.772;4.804;2023-01-28T03:31:16;13.50;;;6.50;;
74320;SDS011;62738;45.772;4.804;2023-01-28T03:34:04;11.50;;;5.72;;
74320;SDS011;62738;45.772;4.804;2023-01-28T03:36:51;12.50;;;6.63;;
74320;SDS011;62738;45.772;4.804;2023-01-28T03:39:23;12.18;;;6.57;;
74320;SDS011;62738;45.772;4.804;2023-01-28T03:41:55;13.70;;;6.20;;
74320;SDS011;62738;45.772;4.804;2023-01-28T03:44:27;12.18;;;5.90;;
74320;SDS011;62738;45.772;4.804;2023-01-28T03:47:12;14.32;;;6.65;;
74320;SDS011;62738;45.772;4.804;2023-01-28T03:49:43;11.40;;;6.90;;
74320;SDS011;62738;45.772;4.804;2023-01-28T03:54:38;10.07;;;4.95;;
74320;SDS011;62738;45.772;4.804;2023-01-28T03:57:04;15.18;;;6.85;;
74320;SDS011;62738;45.772;4.804;2023-01-28T03:59:31;12.90;;;6.30;;
74320;SDS011;62738;45.772;4.804;2023-01-28T04:01:58;13.48;;;6.85;;
74320;SDS011;62738;45.772;4.804;2023-01-28T04:04:25;12.07;;;6.18;;
74320;SDS011;62738;45.772;4.804;2023-01-28T04:06:53;12.20;;;6.68;;
74320;SDS011;62738;45.772;4.804;2023-01-28T04:09:20;13.48;;;6.20;;
74320;SDS011;62738;45.772;4.804;2023-01-28T04:11:48;16.05;;;6.53;;
74320;SDS011;62738;45.772;4.804;2023-01-28T04:14:18;10.27;;;6.07;;
74320;SDS011;62738;45.772;4.804;2023-01-28T04:16:45;13.15;;;5.97;;
74320;SDS011;62738;45.772;4.804;2023-01-28T04:19:12;12.70;;;6.68;;
74320;SDS011;62738;45.772;4.804;2023-01-28T04:21:39;10.65;;;5.45;;
74320;SDS011;62738;45.772;4.804;2023-01-28T04:24:05;13.13;;;6.43;;
74320;SDS011;62738;45.772;4.804;2023-01-28T04:26:32;12.50;;;6.50;;
74320;SDS011;62738;45.772;4.804;2023-01-28T04:28:59;12.20;;;6.45;;
74320;SDS011;62738;45.772;4.804;2023-01-28T04:31:25;8.07;;;4.28;;
74320;SDS011;62738;45.772;4.804;2023-01-28T04:33:53;10.88;;;6.07;;
74320;SDS011;62738;45.772;4.804;2023-01-28T04:36:19;10.07;;;5.57;;
74320;SDS011;62738;45.772;4.804;2023-01-28T04:38:46;11.98;;;6.10;;
74320;SDS011;62738;45.772;4.804;2023-01-28T04:41:13;13.02;;;6.18;;
74320;SDS011;62738;45.772;4.804;2023-01-28T04:43:39;10.95;;;6.18;;
74320;SDS011;62738;45.772;4.804;2023-01-28T04:46:06;9.57;;;5.50;;
74320;SDS011;62738;45.772;4.804;2023-01-28T04:48:33;10.13;;;5.68;;
74320;SDS011;62738;45.772;4.804;2023-01-28T04:51:02;12.68;;;6.53;;
74320;SDS011;62738;45.772;4.804;2023-01-28T04:53:29;11.73;;;6.38;;
74320;SDS011;62738;45.772;4.804;2023-01-28T04:55:56;12.13;;;5.82;;
74320;SDS011;62738;45.772;4.804;2023-01-28T04:58:23;12.30;;;6.28;;
74320;SDS011;62738;45.772;4.804;2023-01-28T05:00:53;10.98;;;6.07;;
74320;SDS011;62738;45.772;4.804;2023-01-28T05:03:21;11.52;;;6.22;;
74320;SDS011;62738;45.772;4.804;2023-01-28T05:05:48;11.75;;;5.60;;
74320;SDS011;62738;45.772;4.804;2023-01-28T05:08:15;12.40;;;5.65;;
74320;SDS011;62738;45.772;4.804;2023-01-28T05:10:42;11.20;;;6.18;;
74320;SDS011;62738;45.772;4.804;2023-01-28T05:13:09;12.80;;;5.72;;
74320;SDS011;62738;45.772;4.804;2023-01-28T05:15:36;12.38;;;6.40;;
74320;SDS011;62738;45.772;4.804;2023-01-28T05:18:03;9.60;;;5.15;;
74320;SDS011;62738;45.772;4.804;2023-01-28T05:20:29;11.90;;;6.35;;
74320;SDS011;62738;45.772;4.804;2023-01-28T05:22:56;10.85;;;6.43;;
74320;SDS011;62738;45.772;4.804;2023-01-28T05:25:22;11.32;;;5.53;;
74320;SDS011;62738;45.772;4.804;2023-01-28T05:27:50;12.07;;;6.20;;
74320;SDS011;62738;45.772;4.804;2023-01-28T05:30:17;12.07;;;6.63;;
74320;SDS011;62738;45.772;4.804;2023-01-28T05:32:45;10.98;;;6.50;;
74320;SDS011;62738;45.772;4.804;2023-01-28T05:35:12;11.43;;;6.70;;
74320;SDS011;62738;45.772;4.804;2023-01-28T05:37:39;13.07;;;6.32;;
74320;SDS011;62738;45.772;4.804;2023-01-28T05:40:06;14.57;;;5.95;;
74320;SDS011;62738;45.772;4.804;2023-01-28T05:42:33;10.38;;;5.45;;
74320;SDS011;62738;45.772;4.804;2023-01-28T05:44:59;14.25;;;6.78;;
74320;SDS011;62738;45.772;4.804;2023-01-28T05:47:26;11.32;;;5.40;;
74320;SDS011;62738;45.772;4.804;2023-01-28T05:49:52;11.80;;;6.18;;
74320;SDS011;62738;45.772;4.804;2023-01-28T05:52:19;9.68;;;5.53;;
74320;SDS011;62738;45.772;4.804;2023-01-28T05:54:46;10.18;;;5.95;;
74320;SDS011;62738;45.772;4.804;2023-01-28T05:57:13;11.13;;;5.93;;
74320;SDS011;62738;45.772;4.804;2023-01-28T05:59:40;14.07;;;6.60;;
74320;SDS011;62738;45.772;4.804;2023-01-28T06:02:06;10.25;;;5.68;;
74320;SDS011;62738;45.772;4.804;2023-01-28T06:04:33;12.73;;;6.18;;
74320;SDS011;62738;45.772;4.804;2023-01-28T06:06:59;11.07;;;5.80;;
74320;SDS011;62738;45.772;4.804;2023-01-28T06:09:26;13.05;;;6.55;;
74320;SDS011;62738;45.772;4.804;2023-01-28T06:11:53;9.95;;;5.20;;
74320;SDS011;62738;45.772;4.804;2023-01-28T06:14:19;10.80;;;6.38;;
74320;SDS011;62738;45.772;4.804;2023-01-28T06:16:46;9.68;;;5.47;;
74320;SDS011;62738;45.772;4.804;2023-01-28T06:19:12;10.85;;;5.90;;
74320;SDS011;62738;45.772;4.804;2023-01-28T06:21:39;11.85;;;5.72;;
74320;SDS011;62738;45.772;4.804;2023-01-28T06:24:06;11.05;;;5.38;;
74320;SDS011;62738;45.772;4.804;2023-01-28T06:26:32;9.68;;;4.78;;
74320;SDS011;62738;45.772;4.804;2023-01-28T06:28:59;11.18;;;6.15;;
74320;SDS011;62738;45.772;4.804;2023-01-28T06:31:26;9.77;;;5.05;;
74320;SDS011;62738;45.772;4.804;2023-01-28T06:33:52;11.90;;;5.70;;
74320;SDS011;62738;45.772;4.804;2023-01-28T06:36:19;10.30;;;5.07;;
74320;SDS011;62738;45.772;4.804;2023-01-28T06:38:46;11.48;;;5.82;;
74320;SDS011;62738;45.772;4.804;2023-01-28T06:41:12;12.63;;;6.13;;
74320;SDS011;62738;45.772;4.804;2023-01-28T06:43:39;11.75;;;6.05;;
74320;SDS011;62738;45.772;4.804;2023-01-28T06:46:06;11.07;;;6.20;;
74320;SDS011;62738;45.772;4.804;2023-01-28T06:48:32;10.18;;;4.78;;
74320;SDS011;62738;45.772;4.804;2023-01-28T06:50:59;11.32;;;6.45;;
74320;SDS011;62738;45.772;4.804;2023-01-28T06:53:26;11.90;;;5.50;;
74320;SDS011;62738;45.772;4.804;2023-01-28T06:55:52;12.70;;;6.22;;
74320;SDS011;62738;45.772;4.804;2023-01-28T06:58:19;14.02;;;6.93;;
74320;SDS011;62738;45.772;4.804;2023-01-28T07:00:46;12.65;;;5.60;;
74320;SDS011;62738;45.772;4.804;2023-01-28T07:03:12;10.68;;;5.32;;
74320;SDS011;62738;45.772;4.804;2023-01-28T07:05:39;11.50;;;5.38;;
74320;SDS011;62738;45.772;4.804;2023-01-28T07:08:06;10.15;;;5.88;;
74320;SDS011;62738;45.772;4.804;2023-01-28T07:10:32;12.30;;;5.57;;
74320;SDS011;62738;45.772;4.804;2023-01-28T07:12:59;11.40;;;6.22;;
74320;SDS011;62738;45.772;4.804;2023-01-28T07:15:26;12.45;;;5.90;;
74320;SDS011;62738;45.772;4.804;2023-01-28T07:17:52;13.00;;;6.22;;
74320;SDS011;62738;45.772;4.804;2023-01-28T07:20:19;9.50;;;5.45;;
74320;SDS011;62738;45.772;4.804;2023-01-28T07:22:46;11.18;;;5.13;;
74320;SDS011;62738;45.772;4.804;2023-01-28T07:25:13;11.43;;;6.20;;
74320;SDS011;62738;45.772;4.804;2023-01-28T07:27:47;10.10;;;5.05;;
74320;SDS011;62738;45.772;4.804;2023-01-28T07:30:18;14.02;;;5.80;;
74320;SDS011;62738;45.772;4.804;2023-01-28T07:32:45;11.45;;;5.82;;
74320;SDS011;62738;45.772;4.804;2023-01-28T07:35:17;11.63;;;6.45;;
74320;SDS011;62738;45.772;4.804;2023-01-28T07:37:49;11.80;;;5.65;;
74320;SDS011;62738;45.772;4.804;2023-01-28T07:40:18;12.38;;;5.55;;
74320;SDS011;62738;45.772;4.804;2023-01-28T07:42:44;12.45;;;5.80;;
74320;SDS011;62738;45.772;4.804;2023-01-28T07:45:11;11.05;;;5.75;;
74320;SDS011;62738;45.772;4.804;2023-01-28T07:47:38;10.45;;;5.20;;
74320;SDS011;62738;45.772;4.804;2023-01-28T07:50:05;9.63;;;4.82;;
74320;SDS011;62738;45.772;4.804;2023-01-28T07:52:31;12.55;;;6.40;;
74320;SDS011;62738;45.772;4.804;2023-01-28T07:55:04;12.18;;;6.68;;
74320;SDS011;62738;45.772;4.804;2023-01-28T07:57:30;10.05;;;5.35;;
74320;SDS011;62738;45.772;4.804;2023-01-28T07:59:57;10.10;;;5.85;;
74320;SDS011;62738;45.772;4.804;2023-01-28T08:02:24;11.43;;;6.00;;
74320;SDS011;62738;45.772;4.804;2023-01-28T08:04:50;11.45;;;6.13;;
74320;SDS011;62738;45.772;4.804;2023-01-28T08:07:17;11.40;;;5.53;;
74320;SDS011;62738;45.772;4.804;2023-01-28T08:09:43;11.40;;;5.78;;
74320;SDS011;62738;45.772;4.804;2023-01-28T08:12:10;11.77;;;6.18;;
74320;SDS011;62738;45.772;4.804;2023-01-28T08:14:37;12.63;;;6.63;;
74320;SDS011;62738;45.772;4.804;2023-01-28T08:17:03;10.02;;;5.40;;
74320;SDS011;62738;45.772;4.804;2023-01-28T08:19:30;9.65;;;5.28;;
74320;SDS011;62738;45.772;4.804;2023-01-28T08:21:57;10.27;;;5.45;;
74320;SDS011;62738;45.772;4.804;2023-01-28T08:24:23;11.27;;;5.70;;
74320;SDS011;62738;45.772;4.804;2023-01-28T08:26:50;11.32;;;4.82;;
74320;SDS011;62738;45.772;4.804;2023-01-28T08:29:16;9.57;;;5.82;;
74320;SDS011;62738;45.772;4.804;2023-01-28T08:31:43;10.00;;;5.57;;
74320;SDS011;62738;45.772;4.804;2023-01-28T08:34:10;10.80;;;5.50;;
74320;SDS011;62738;45.772;4.804;2023-01-28T08:36:37;10.10;;;6.03;;
74320;SDS011;62738;45.772;4.804;2023-01-28T08:39:03;10.70;;;5.75;;
74320;SDS011;62738;45.772;4.804;2023-01-28T08:41:31;9.70;;;4.70;;
74320;SDS011;62738;45.772;4.804;2023-01-28T08:43:57;11.05;;;5.97;;
74320;SDS011;62738;45.772;4.804;2023-01-28T08:46:25;10.73;;;5.78;;
74320;SDS011;62738;45.772;4.804;2023-01-28T08:48:52;12.45;;;5.22;;
74320;SDS011;62738;45.772;4.804;2023-01-28T08:51:18;6.53;;;4.05;;
74320;SDS011;62738;45.772;4.804;2023-01-28T08:53:45;10.65;;;5.75;;
74320;SDS011;62738;45.772;4.804;2023-01-28T08:56:12;11.18;;;6.45;;
74320;SDS011;62738;45.772;4.804;2023-01-28T08:58:39;10.43;;;5.88;;
74320;SDS011;62738;45.772;4.804;2023-01-28T09:01:06;12.50;;;5.93;;
74320;SDS011;62738;45.772;4.804;2023-01-28T09:03:33;10.80;;;5.70;;
74320;SDS011;62738;45.772;4.804;2023-01-28T09:06:02;10.00;;;5.60;;
74320;SDS011;62738;45.772;4.804;2023-01-28T09:08:29;11.13;;;5.57;;
74320;SDS011;62738;45.772;4.804;2023-01-28T09:10:56;11.18;;;6.13;;
74320;SDS011;62738;45.772;4.804;2023-01-28T09:13:23;11.00;;;5.80;;
74320;SDS011;62738;45.772;4.804;2023-01-28T09:15:50;12.13;;;5.25;;
74320;SDS011;62738;45.772;4.804;2023-01-28T09:18:17;11.82;;;6.50;;
74320;SDS011;62738;45.772;4.804;2023-01-28T09:20:44;10.82;;;6.47;;
74320;SDS011;62738;45.772;4.804;2023-01-28T09:23:11;10.18;;;5.72;;
74320;SDS011;62738;45.772;4.804;2023-01-28T09:25:38;10.60;;;5.72;;
74320;SDS011;62738;45.772;4.804;2023-01-28T09:28:05;11.73;;;5.38;;
74320;SDS011;62738;45.772;4.804;2023-01-28T09:30:32;10.95;;;5.57;;
74320;SDS011;62738;45.772;4.804;2023-01-28T09:33:02;10.20;;;5.93;;
74320;SDS011;62738;45.772;4.804;2023-01-28T09:35:29;12.93;;;6.05;;
74320;SDS011;62738;45.772;4.804;2023-01-28T09:37:56;9.85;;;5.93;;
74320;SDS011;62738;45.772;4.804;2023-01-28T09:45:42;12.13;;;6.25;;
74320;SDS011;62738;45.772;4.804;2023-01-28T09:48:13;10.88;;;6.20;;
74320;SDS011;62738;45.772;4.804;2023-01-28T09:50:50;10.75;;;6.32;;
74320;SDS011;62738;45.772;4.804;2023-01-28T09:53:22;12.15;;;6.07;;
74320;SDS011;62738;45.772;4.804;2023-01-28T09:55:54;10.15;;;5.72;;
74320;SDS011;62738;45.772;4.804;2023-01-28T09:58:21;10.38;;;6.63;;
74320;SDS011;62738;45.772;4.804;2023-01-28T10:00:56;10.85;;;5.30;;
74320;SDS011;62738;45.772;4.804;2023-01-28T10:17:51;9.18;;;5.40;;
74320;SDS011;62738;45.772;4.804;2023-01-28T10:20:43;9.95;;;5.70;;
74320;SDS011;62738;45.772;4.804;2023-01-28T10:23:21;10.18;;;6.30;;
74320;SDS011;62738;45.772;4.804;2023-01-28T10:25:53;11.95;;;6.55;;
74320;SDS011;62738;45.772;4.804;2023-01-28T10:28:23;13.00;;;6.35;;
74320;SDS011;62738;45.772;4.804;2023-01-28T10:30:54;10.15;;;6.15;;
74320;SDS011;62738;45.772;4.804;2023-01-28T10:33:23;11.13;;;5.72;;
74320;SDS011;62738;45.772;4.804;2023-01-28T10:35:58;11.32;;;5.38;;
74320;SDS011;62738;45.772;4.804;2023-01-28T10:38:26;9.88;;;5.80;;
74320;SDS011;62738;45.772;4.804;2023-01-28T10:40:54;10.68;;;6.03;;
74320;SDS011;62738;45.772;4.804;2023-01-28T10:43:29;7.80;;;4.55;;
74320;SDS011;62738;45.772;4.804;2023-01-28T10:48:34;8.85;;;5.38;;
74320;SDS011;62738;45.772;4.804;2023-01-28T10:51:04;10.65;;;5.53;;
74320;SDS011;62738;45.772;4.804;2023-01-28T10:56:04;10.60;;;5.50;;
74320;SDS011;62738;45.772;4.804;2023-01-28T10:58:34;9.70;;;5.40;;
74320;SDS011;62738;45.772;4.804;2023-01-28T11:01:12;13.13;;;5.72;;
74320;SDS011;62738;45.772;4.804;2023-01-28T11:03:39;10.70;;;6.63;;
74320;SDS011;62738;45.772;4.804;2023-01-28T11:06:22;8.55;;;5.03;;
74320;SDS011;62738;45.772;4.804;2023-01-28T11:08:50;9.75;;;5.10;;
74320;SDS011;62738;45.772;4.804;2023-01-28T11:11:22;11.13;;;5.63;;
74320;SDS011;62738;45.772;4.804;2023-01-28T11:13:52;9.88;;;5.18;;
74320;SDS011;62738;45.772;4.804;2023-01-28T11:16:20;9.88;;;5.55;;
74320;SDS011;62738;45.772;4.804;2023-01-28T11:18:49;10.45;;;5.53;;
74320;SDS011;62738;45.772;4.804;2023-01-28T11:21:19;8.23;;;4.78;;
74320;SDS011;62738;45.772;4.804;2023-01-28T11:23:55;10.65;;;4.95;;
74320;SDS011;62738;45.772;4.804;2023-01-28T11:26:42;10.13;;;5.50;;
74320;SDS011;62738;45.772;4.804;2023-01-28T11:29:19;11.98;;;5.30;;
74320;SDS011;62738;45.772;4.804;2023-01-28T11:31:50;9.57;;;5.03;;
74320;SDS011;62738;45.772;4.804;2023-01-28T11:34:17;7.57;;;4.40;;
74320;SDS011;62738;45.772;4.804;2023-01-28T11:36:51;9.43;;;5.35;;
74320;SDS011;62738;45.772;4.804;2023-01-28T11:39:23;7.68;;;4.50;;
74320;SDS011;62738;45.772;4.804;2023-01-28T11:41:53;8.95;;;4.75;;
74320;SDS011;62738;45.772;4.804;2023-01-28T11:44:28;7.78;;;4.45;;
74320;SDS011;62738;45.772;4.804;2023-01-28T12:06:38;9.15;;;4.68;;
74320;SDS011;62738;45.772;4.804;2023-01-28T12:09:24;7.50;;;5.07;;
74320;SDS011;62738;45.772;4.804;2023-01-28T12:17:16;9.05;;;4.63;;
74320;SDS011;62738;45.772;4.804;2023-01-28T12:47:57;11.13;;;4.80;;
74320;SDS011;62738;45.772;4.804;2023-01-28T12:50:30;9.52;;;4.72;;
74320;SDS011;62738;45.772;4.804;2023-01-28T12:53:08;8.07;;;4.88;;
74320;SDS011;62738;45.772;4.804;2023-01-28T12:55:59;9.15;;;4.82;;
74320;SDS011;62738;45.772;4.804;2023-01-28T13:01:34;7.65;;;4.20;;
74320;SDS011;62738;45.772;4.804;2023-01-28T13:04:08;8.75;;;4.82;;
74320;SDS011;62738;45.772;4.804;2023-01-28T13:06:49;8.85;;;4.80;;
74320;SDS011;62738;45.772;4.804;2023-01-28T13:09:23;9.10;;;4.95;;
74320;SDS011;62738;45.772;4.804;2023-01-28T13:11:52;8.35;;;4.70;;
74320;SDS011;62738;45.772;4.804;2023-01-28T13:14:23;7.90;;;4.22;;
74320;SDS011;62738;45.772;4.804;2023-01-28T13:16:54;7.90;;;4.60;;
74320;SDS011;62738;45.772;4.804;2023-01-28T13:19:22;7.55;;;4.32;;
74320;SDS011;62738;45.772;4.804;2023-01-28T13:21:50;7.82;;;3.65;;
74320;SDS011;62738;45.772;4.804;2023-01-28T13:24:19;9.93;;;4.43;;
74320;SDS011;62738;45.772;4.804;2023-01-28T13:26:51;8.93;;;4.50;;
74320;SDS011;62738;45.772;4.804;2023-01-28T13:29:26;10.07;;;5.00;;
74320;SDS011;62738;45.772;4.804;2023-01-28T13:31:57;7.78;;;4.18;;
74320;SDS011;62738;45.772;4.804;2023-01-28T13:40:24;9.45;;;4.97;;
74320;SDS011;62738;45.772;4.804;2023-01-28T13:43:00;7.20;;;3.95;;
74320;SDS011;62738;45.772;4.804;2023-01-28T13:45:32;8.63;;;4.75;;
74320;SDS011;62738;45.772;4.804;2023-01-28T13:48:01;8.43;;;4.55;;
74320;SDS011;62738;45.772;4.804;2023-01-28T13:50:41;6.90;;;3.85;;
74320;SDS011;62738;45.772;4.804;2023-01-28T13:56:06;7.22;;;4.35;;
74320;SDS011;62738;45.772;4.804;2023-01-28T13:58:48;8.30;;;4.40;;
74320;SDS011;62738;45.772;4.804;2023-01-28T14:13:13;8.32;;;4.22;;
74320;SDS011;62738;45.772;4.804;2023-01-28T14:18:39;7.53;;;4.10;;
74320;SDS011;62738;45.772;4.804;2023-01-28T14:21:10;8.45;;;4.55;;
74320;SDS011;62738;45.772;4.804;2023-01-28T14:23:44;9.77;;;4.20;;
74320;SDS011;62738;45.772;4.804;2023-01-28T14:28:53;7.35;;;4.30;;
74320;SDS011;62738;45.772;4.804;2023-01-28T14:31:31;6.25;;;3.75;;
74320;SDS011;62738;45.772;4.804;2023-01-28T14:34:07;7.53;;;4.22;;
74320;SDS011;62738;45.772;4.804;2023-01-28T14:36:42;7.03;;;4.10;;
74320;SDS011;62738;45.772;4.804;2023-01-28T14:39:14;8.35;;;4.18;;
74320;SDS011;62738;45.772;4.804;2023-01-28T14:41:43;8.07;;;4.30;;
74320;SDS011;62738;45.772;4.804;2023-01-28T14:44:20;9.40;;;4.32;;
74320;SDS011;62738;45.772;4.804;2023-01-28T14:58:02;7.00;;;4.30;;
74320;SDS011;62738;45.772;4.804;2023-01-28T15:00:34;7.13;;;4.43;;
74320;SDS011;62738;45.772;4.804;2023-01-28T15:03:16;7.32;;;4.20;;
74320;SDS011;62738;45.772;4.804;2023-01-28T15:06:03;6.75;;;3.47;;
74320;SDS011;62738;45.772;4.804;2023-01-28T15:08:41;7.45;;;3.88;;
74320;SDS011;62738;45.772;4.804;2023-01-28T15:11:09;8.07;;;4.30;;
74320;SDS011;62738;45.772;4.804;2023-01-28T15:13:40;8.05;;;4.22;;
74320;SDS011;62738;45.772;4.804;2023-01-28T15:16:17;9.07;;;4.38;;
74320;SDS011;62738;45.772;4.804;2023-01-28T15:18:46;7.05;;;3.38;;
74320;SDS011;62738;45.772;4.804;2023-01-28T15:21:23;7.40;;;3.95;;
74320;SDS011;62738;45.772;4.804;2023-01-28T15:23:54;8.13;;;4.13;;
74320;SDS011;62738;45.772;4.804;2023-01-28T15:26:23;7.53;;;4.38;;
74320;SDS011;62738;45.772;4.804;2023-01-28T15:28:52;6.57;;;3.63;;
74320;SDS011;62738;45.772;4.804;2023-01-28T15:31:21;8.43;;;4.30;;
74320;SDS011;62738;45.772;4.804;2023-01-28T15:36:27;9.18;;;4.80;;
74320;SDS011;62738;45.772;4.804;2023-01-28T15:38:55;7.88;;;4.00;;
74320;SDS011;62738;45.772;4.804;2023-01-28T15:41:23;7.60;;;4.15;;
74320;SDS011;62738;45.772;4.804;2023-01-28T15:43:54;7.82;;;4.03;;
74320;SDS011;62738;45.772;4.804;2023-01-28T15:46:21;7.00;;;4.03;;
74320;SDS011;62738;45.772;4.804;2023-01-28T15:48:50;8.38;;;4.30;;
74320;SDS011;62738;45.772;4.804;2023-01-28T15:51:27;8.18;;;3.97;;
74320;SDS011;62738;45.772;4.804;2023-01-28T15:54:00;8.10;;;4.18;;
74320;SDS011;62738;45.772;4.804;2023-01-28T15:56:30;7.38;;;4.05;;
74320;SDS011;62738;45.772;4.804;2023-01-28T15:59:07;8.57;;;4.00;;
74320;SDS011;62738;45.772;4.804;2023-01-28T16:01:41;8.57;;;4.00;;
74320;SDS011;62738;45.772;4.804;2023-01-28T16:04:25;6.50;;;3.15;;
74320;SDS011;62738;45.772;4.804;2023-01-28T16:06:54;8.15;;;4.47;;
74320;SDS011;62738;45.772;4.804;2023-01-28T16:09:27;7.70;;;4.28;;
74320;SDS011;62738;45.772;4.804;2023-01-28T16:12:03;6.90;;;3.72;;
74320;SDS011;62738;45.772;4.804;2023-01-28T16:14:33;9.27;;;4.15;;
74320;SDS011;62738;45.772;4.804;2023-01-28T16:17:02;8.15;;;4.28;;
74320;SDS011;62738;45.772;4.804;2023-01-28T16:19:35;8.23;;;4.28;;
74320;SDS011;62738;45.772;4.804;2023-01-28T16:22:06;6.28;;;2.92;;
74320;SDS011;62738;45.772;4.804;2023-01-28T16:24:34;7.88;;;4.00;;
74320;SDS011;62738;45.772;4.804;2023-01-28T16:27:03;7.82;;;3.63;;
74320;SDS011;62738;45.772;4.804;2023-01-28T16:29:32;7.45;;;4.00;;
74320;SDS011;62738;45.772;4.804;2023-01-28T16:31:59;9.18;;;4.68;;
74320;SDS011;62738;45.772;4.804;2023-01-28T16:34:26;6.80;;;3.80;;
74320;SDS011;62738;45.772;4.804;2023-01-28T16:36:59;7.93;;;3.63;;
74320;SDS011;62738;45.772;4.804;2023-01-28T16:39:26;6.88;;;4.00;;
74320;SDS011;62738;45.772;4.804;2023-01-28T16:41:53;8.70;;;3.75;;
74320;SDS011;62738;45.772;4.804;2023-01-28T16:44:22;8.13;;;4.30;;
74320;SDS011;62738;45.772;4.804;2023-01-28T16:46:48;7.75;;;3.95;;
74320;SDS011;62738;45.772;4.804;2023-01-28T16:49:15;7.10;;;4.18;;
74320;SDS011;62738;45.772;4.804;2023-01-28T16:51:42;6.80;;;3.67;;
74320;SDS011;62738;45.772;4.804;2023-01-28T16:54:12;6.10;;;3.67;;
74320;SDS011;62738;45.772;4.804;2023-01-28T16:56:40;7.97;;;4.28;;
74320;SDS011;62738;45.772;4.804;2023-01-28T16:59:12;7.38;;;4.07;;
74320;SDS011;62738;45.772;4.804;2023-01-28T17:01:40;7.35;;;3.90;;
74320;SDS011;62738;45.772;4.804;2023-01-28T17:04:07;7.00;;;3.90;;
74320;SDS011;62738;45.772;4.804;2023-01-28T17:06:39;7.78;;;3.95;;
74320;SDS011;62738;45.772;4.804;2023-01-28T17:09:10;7.85;;;4.20;;
74320;SDS011;62738;45.772;4.804;2023-01-28T17:11:38;7.78;;;4.68;;
74320;SDS011;62738;45.772;4.804;2023-01-28T17:14:05;6.22;;;3.95;;
74320;SDS011;62738;45.772;4.804;2023-01-28T17:16:32;7.97;;;4.30;;